sensor_id;sensor_type;location;lat;lon;timestamp;temperature;humidity
10388;DHT22;5240;51.128;4.566;2023-05-02T00:00:27;12.10;99.90
10388;DHT22;5240;51.128;4.566;2023-05-02T00:02:55;12.20;99.90
10388;DHT22;5240;51.128;4.566;2023-05-02T00:05:23;12.30;99.90
10388;DHT22;5240;51.128;4.566;2023-05-02T00:07:50;12.30;99.90
10388;DHT22;5240;51.128;4.566;2023-05-02T00:10:17;12.30;99.90
10388;DHT22;5240;51.128;4.566;2023-05-02T00:12:45;12.30;99.90
10388;DHT22;5240;51.128;4.566;2023-05-02T00:15:12;12.30;99.90
10388;DHT22;5240;51.128;4.566;2023-05-02T00:17:39;12.30;99.90
10388;DHT22;5240;51.128;4.566;2023-05-02T00:20:09;12.50;99.90
10388;DHT22;5240;51.128;4.566;2023-05-02T00:22:36;12.50;99.90
10388;DHT22;5240;51.128;4.566;2023-05-02T00:25:05;12.60;99.90
10388;DHT22;5240;51.128;4.566;2023-05-02T00:27:32;12.60;99.90
10388;DHT22;5240;51.128;4.566;2023-05-02T00:29:59;12.40;99.90
10388;DHT22;5240;51.128;4.566;2023-05-02T00:32:26;12.40;99.90
10388;DHT22;5240;51.128;4.566;2023-05-02T00:34:53;12.40;99.90
10388;DHT22;5240;51.128;4.566;2023-05-02T00:37:25;12.30;99.90
10388;DHT22;5240;51.128;4.566;2023-05-02T00:39:52;12.30;99.90
10388;DHT22;5240;51.128;4.566;2023-05-02T00:42:19;12.30;99.90
10388;DHT22;5240;51.128;4.566;2023-05-02T00:44:46;12.30;99.90
10388;DHT22;5240;51.128;4.566;2023-05-02T00:47:14;12.10;99.90
10388;DHT22;5240;51.128;4.566;2023-05-02T00:49:41;12.10;99.90
10388;DHT22;5240;51.128;4.566;2023-05-02T00:52:08;12.00;99.90
10388;DHT22;5240;51.128;4.566;2023-05-02T00:54:37;12.00;99.90
10388;DHT22;5240;51.128;4.566;2023-05-02T00:57:05;12.00;99.90
10388;DHT22;5240;51.128;4.566;2023-05-02T00:59:33;12.00;99.90
10388;DHT22;5240;51.128;4.566;2023-05-02T01:02:09;12.00;99.90
10388;DHT22;5240;51.128;4.566;2023-05-02T01:04:43;12.00;99.90
10388;DHT22;5240;51.128;4.566;2023-05-02T01:07:26;12.00;99.90
10388;DHT22;5240;51.128;4.566;2023-05-02T01:10:03;12.00;99.90
10388;DHT22;5240;51.128;4.566;2023-05-02T01:12:41;12.00;99.90
10388;DHT22;5240;51.128;4.566;2023-05-02T01:15:13;11.90;99.90
10388;DHT22;5240;51.128;4.566;2023-05-02T01:17:43;11.90;99.90
10388;DHT22;5240;51.128;4.566;2023-05-02T01:20:13;11.90;99.90
10388;DHT22;5240;51.128;4.566;2023-05-02T01:22:42;11.70;99.90
10388;DHT22;5240;51.128;4.566;2023-05-02T01:25:19;11.60;99.90
10388;DHT22;5240;51.128;4.566;2023-05-02T01:27:55;11.60;99.90
10388;DHT22;5240;51.128;4.566;2023-05-02T01:30:27;11.60;99.90
10388;DHT22;5240;51.128;4.566;2023-05-02T01:32:56;11.50;99.90
10388;DHT22;5240;51.128;4.566;2023-05-02T01:35:25;11.50;99.90
10388;DHT22;5240;51.128;4.566;2023-05-02T01:37:55;11.40;99.90
10388;DHT22;5240;51.128;4.566;2023-05-02T01:40:24;11.30;99.90
10388;DHT22;5240;51.128;4.566;2023-05-02T01:42:52;11.30;99.90
10388;DHT22;5240;51.128;4.566;2023-05-02T01:45:21;11.30;99.90
10388;DHT22;5240;51.128;4.566;2023-05-02T01:47:50;11.20;99.90
10388;DHT22;5240;51.128;4.566;2023-05-02T01:50:19;11.10;99.90
10388;DHT22;5240;51.128;4.566;2023-05-02T01:52:50;11.10;99.90
10388;DHT22;5240;51.128;4.566;2023-05-02T01:55:17;11.10;99.90
10388;DHT22;5240;51.128;4.566;2023-05-02T01:57:46;11.00;99.90
10388;DHT22;5240;51.128;4.566;2023-05-02T02:00:16;11.10;99.90
10388;DHT22;5240;51.128;4.566;2023-05-02T02:02:44;11.10;99.90
10388;DHT22;5240;51.128;4.566;2023-05-02T02:05:14;11.10;99.90
10388;DHT22;5240;51.128;4.566;2023-05-02T02:07:42;11.10;99.90
10388;DHT22;5240;51.128;4.566;2023-05-02T02:10:10;11.00;99.90
10388;DHT22;5240;51.128;4.566;2023-05-02T02:12:40;11.00;99.90
10388;DHT22;5240;51.128;4.566;2023-05-02T02:15:12;10.90;99.90
10388;DHT22;5240;51.128;4.566;2023-05-02T02:17:46;10.90;99.90
10388;DHT22;5240;51.128;4.566;2023-05-02T02:20:16;10.90;99.90
10388;DHT22;5240;51.128;4.566;2023-05-02T02:22:43;10.90;99.90
10388;DHT22;5240;51.128;4.566;2023-05-02T02:25:13;10.90;99.90
10388;DHT22;5240;51.128;4.566;2023-05-02T02:27:41;11.00;99.90
10388;DHT22;5240;51.128;4.566;2023-05-02T02:30:09;10.90;99.90
10388;DHT22;5240;51.128;4.566;2023-05-02T02:32:37;10.90;99.90
10388;DHT22;5240;51.128;4.566;2023-05-02T02:35:04;11.00;99.90
10388;DHT22;5240;51.128;4.566;2023-05-02T02:37:36;11.00;99.90
10388;DHT22;5240;51.128;4.566;2023-05-02T02:40:11;11.00;99.90
10388;DHT22;5240;51.128;4.566;2023-05-02T02:42:51;11.00;99.90
10388;DHT22;5240;51.128;4.566;2023-05-02T02:45:29;11.20;99.90
10388;DHT22;5240;51.128;4.566;2023-05-02T02:48:06;11.20;99.90
10388;DHT22;5240;51.128;4.566;2023-05-02T02:50:45;11.10;99.90
10388;DHT22;5240;51.128;4.566;2023-05-02T02:53:23;11.10;99.90
10388;DHT22;5240;51.128;4.566;2023-05-02T02:55:54;11.10;99.90
10388;DHT22;5240;51.128;4.566;2023-05-02T02:58:29;11.10;99.90
10388;DHT22;5240;51.128;4.566;2023-05-02T03:00:59;11.10;99.90
10388;DHT22;5240;51.128;4.566;2023-05-02T03:03:29;11.10;99.90
10388;DHT22;5240;51.128;4.566;2023-05-02T03:05:58;11.10;99.90
10388;DHT22;5240;51.128;4.566;2023-05-02T03:08:27;11.00;99.90
10388;DHT22;5240;51.128;4.566;2023-05-02T03:11:04;11.10;99.90
10388;DHT22;5240;51.128;4.566;2023-05-02T03:13:31;11.10;99.90
10388;DHT22;5240;51.128;4.566;2023-05-02T03:16:33;11.00;99.90
10388;DHT22;5240;51.128;4.566;2023-05-02T03:19:01;11.00;99.90
10388;DHT22;5240;51.128;4.566;2023-05-02T03:21:28;10.90;99.90
10388;DHT22;5240;51.128;4.566;2023-05-02T03:23:58;10.80;99.90
10388;DHT22;5240;51.128;4.566;2023-05-02T03:26:26;10.80;99.90
10388;DHT22;5240;51.128;4.566;2023-05-02T03:28:53;10.90;99.90
10388;DHT22;5240;51.128;4.566;2023-05-02T03:31:21;10.90;99.90
10388;DHT22;5240;51.128;4.566;2023-05-02T03:33:48;10.90;99.90
10388;DHT22;5240;51.128;4.566;2023-05-02T03:36:15;10.90;99.90
10388;DHT22;5240;51.128;4.566;2023-05-02T03:38:42;10.90;99.90
10388;DHT22;5240;51.128;4.566;2023-05-02T03:41:11;10.90;99.90
10388;DHT22;5240;51.128;4.566;2023-05-02T03:43:38;10.90;99.90
10388;DHT22;5240;51.128;4.566;2023-05-02T03:46:06;10.90;99.90
10388;DHT22;5240;51.128;4.566;2023-05-02T03:48:34;10.90;99.90
10388;DHT22;5240;51.128;4.566;2023-05-02T03:51:01;10.80;99.90
10388;DHT22;5240;51.128;4.566;2023-05-02T03:53:28;10.80;99.90
10388;DHT22;5240;51.128;4.566;2023-05-02T03:55:56;10.70;99.90
10388;DHT22;5240;51.128;4.566;2023-05-02T03:58:25;10.70;99.90
10388;DHT22;5240;51.128;4.566;2023-05-02T04:00:53;10.80;99.90
10388;DHT22;5240;51.128;4.566;2023-05-02T04:03:20;10.90;99.90
10388;DHT22;5240;51.128;4.566;2023-05-02T04:05:48;10.90;99.90
10388;DHT22;5240;51.128;4.566;2023-05-02T04:08:16;11.00;99.90
10388;DHT22;5240;51.128;4.566;2023-05-02T04:10:43;11.10;99.90
10388;DHT22;5240;51.128;4.566;2023-05-02T04:13:10;11.10;99.90
10388;DHT22;5240;51.128;4.566;2023-05-02T04:15:38;11.20;99.90
10388;DHT22;5240;51.128;4.566;2023-05-02T04:18:05;11.20;99.90
10388;DHT22;5240;51.128;4.566;2023-05-02T04:20:32;11.20;99.90
10388;DHT22;5240;51.128;4.566;2023-05-02T04:22:59;11.10;99.90
10388;DHT22;5240;51.128;4.566;2023-05-02T04:25:27;11.10;99.90
10388;DHT22;5240;51.128;4.566;2023-05-02T04:27:55;11.10;99.90
10388;DHT22;5240;51.128;4.566;2023-05-02T04:30:22;11.10;99.90
10388;DHT22;5240;51.128;4.566;2023-05-02T04:32:50;11.10;99.90
10388;DHT22;5240;51.128;4.566;2023-05-02T04:35:17;11.10;99.90
10388;DHT22;5240;51.128;4.566;2023-05-02T04:37:45;11.10;99.90
10388;DHT22;5240;51.128;4.566;2023-05-02T04:40:13;11.10;99.90
10388;DHT22;5240;51.128;4.566;2023-05-02T04:42:40;11.10;99.90
10388;DHT22;5240;51.128;4.566;2023-05-02T04:45:08;11.10;99.90
10388;DHT22;5240;51.128;4.566;2023-05-02T04:47:35;11.10;99.90
10388;DHT22;5240;51.128;4.566;2023-05-02T04:50:05;11.10;99.90
10388;DHT22;5240;51.128;4.566;2023-05-02T04:52:32;11.00;99.90
10388;DHT22;5240;51.128;4.566;2023-05-02T04:54:59;10.90;99.90
10388;DHT22;5240;51.128;4.566;2023-05-02T04:57:26;11.00;99.90
10388;DHT22;5240;51.128;4.566;2023-05-02T04:59:53;11.00;99.90
10388;DHT22;5240;51.128;4.566;2023-05-02T05:02:20;11.10;99.90
10388;DHT22;5240;51.128;4.566;2023-05-02T05:04:47;11.10;99.90
10388;DHT22;5240;51.128;4.566;2023-05-02T05:07:16;11.00;99.90
10388;DHT22;5240;51.128;4.566;2023-05-02T05:09:43;11.00;99.90
10388;DHT22;5240;51.128;4.566;2023-05-02T05:12:10;11.00;99.90
10388;DHT22;5240;51.128;4.566;2023-05-02T05:14:37;11.10;99.90
10388;DHT22;5240;51.128;4.566;2023-05-02T05:17:05;11.20;99.90
10388;DHT22;5240;51.128;4.566;2023-05-02T05:19:32;11.30;99.90
10388;DHT22;5240;51.128;4.566;2023-05-02T05:21:59;11.20;99.90
10388;DHT22;5240;51.128;4.566;2023-05-02T05:24:28;11.10;99.90
10388;DHT22;5240;51.128;4.566;2023-05-02T05:26:55;11.10;99.90
10388;DHT22;5240;51.128;4.566;2023-05-02T05:29:22;11.10;99.90
10388;DHT22;5240;51.128;4.566;2023-05-02T05:31:49;11.10;99.90
10388;DHT22;5240;51.128;4.566;2023-05-02T05:34:16;11.00;99.90
10388;DHT22;5240;51.128;4.566;2023-05-02T05:36:43;11.10;99.90
10388;DHT22;5240;51.128;4.566;2023-05-02T05:39:10;11.10;99.90
10388;DHT22;5240;51.128;4.566;2023-05-02T05:41:39;11.20;99.90
10388;DHT22;5240;51.128;4.566;2023-05-02T05:44:06;11.10;99.90
10388;DHT22;5240;51.128;4.566;2023-05-02T05:46:33;11.00;99.90
10388;DHT22;5240;51.128;4.566;2023-05-02T05:49:00;11.10;99.90
10388;DHT22;5240;51.128;4.566;2023-05-02T05:51:27;11.10;99.90
10388;DHT22;5240;51.128;4.566;2023-05-02T05:53:56;11.10;99.90
10388;DHT22;5240;51.128;4.566;2023-05-02T05:56:23;11.30;99.90
10388;DHT22;5240;51.128;4.566;2023-05-02T05:58:51;11.30;99.90
10388;DHT22;5240;51.128;4.566;2023-05-02T06:01:19;11.30;99.90
10388;DHT22;5240;51.128;4.566;2023-05-02T06:03:46;11.20;99.90
10388;DHT22;5240;51.128;4.566;2023-05-02T06:06:13;11.10;99.90
10388;DHT22;5240;51.128;4.566;2023-05-02T06:08:40;11.10;99.90
10388;DHT22;5240;51.128;4.566;2023-05-02T06:11:08;11.20;99.90
10388;DHT22;5240;51.128;4.566;2023-05-02T06:13:36;11.30;99.90
10388;DHT22;5240;51.128;4.566;2023-05-02T06:16:05;11.40;99.90
10388;DHT22;5240;51.128;4.566;2023-05-02T06:18:32;11.50;99.90
10388;DHT22;5240;51.128;4.566;2023-05-02T06:21:04;11.40;99.90
10388;DHT22;5240;51.128;4.566;2023-05-02T06:23:31;11.30;99.90
10388;DHT22;5240;51.128;4.566;2023-05-02T06:25:59;11.40;99.90
10388;DHT22;5240;51.128;4.566;2023-05-02T06:28:26;11.50;99.90
10388;DHT22;5240;51.128;4.566;2023-05-02T06:30:57;11.30;99.90
10388;DHT22;5240;51.128;4.566;2023-05-02T06:33:27;11.30;99.90
10388;DHT22;5240;51.128;4.566;2023-05-02T06:35:55;11.30;99.90
10388;DHT22;5240;51.128;4.566;2023-05-02T06:38:23;11.60;99.90
10388;DHT22;5240;51.128;4.566;2023-05-02T06:40:50;11.70;99.90
10388;DHT22;5240;51.128;4.566;2023-05-02T06:43:18;11.70;99.90
10388;DHT22;5240;51.128;4.566;2023-05-02T06:45:45;11.80;99.90
10388;DHT22;5240;51.128;4.566;2023-05-02T06:48:12;12.00;99.90
10388;DHT22;5240;51.128;4.566;2023-05-02T06:50:44;12.20;99.90
10388;DHT22;5240;51.128;4.566;2023-05-02T06:53:15;12.40;99.90
10388;DHT22;5240;51.128;4.566;2023-05-02T06:55:44;12.40;99.90
10388;DHT22;5240;51.128;4.566;2023-05-02T06:58:13;12.30;99.90
10388;DHT22;5240;51.128;4.566;2023-05-02T07:01:06;12.30;99.90
10388;DHT22;5240;51.128;4.566;2023-05-02T07:03:49;12.20;99.90
10388;DHT22;5240;51.128;4.566;2023-05-02T07:06:35;11.90;99.90
10388;DHT22;5240;51.128;4.566;2023-05-02T07:09:02;12.00;99.90
10388;DHT22;5240;51.128;4.566;2023-05-02T07:11:30;12.10;99.90
10388;DHT22;5240;51.128;4.566;2023-05-02T07:13:57;12.00;99.90
10388;DHT22;5240;51.128;4.566;2023-05-02T07:16:24;12.00;99.90
10388;DHT22;5240;51.128;4.566;2023-05-02T07:18:53;12.00;99.90
10388;DHT22;5240;51.128;4.566;2023-05-02T07:21:22;12.00;99.90
10388;DHT22;5240;51.128;4.566;2023-05-02T07:28:56;12.20;99.90
10388;DHT22;5240;51.128;4.566;2023-05-02T07:31:24;12.60;99.90
10388;DHT22;5240;51.128;4.566;2023-05-02T07:33:51;12.80;99.90
10388;DHT22;5240;51.128;4.566;2023-05-02T07:36:18;12.80;99.90
10388;DHT22;5240;51.128;4.566;2023-05-02T07:38:45;12.60;99.90
10388;DHT22;5240;51.128;4.566;2023-05-02T07:41:12;12.70;99.90
10388;DHT22;5240;51.128;4.566;2023-05-02T07:43:40;12.60;99.90
10388;DHT22;5240;51.128;4.566;2023-05-02T07:46:08;12.60;99.90
10388;DHT22;5240;51.128;4.566;2023-05-02T07:48:35;12.90;99.90
10388;DHT22;5240;51.128;4.566;2023-05-02T07:51:06;13.00;99.90
10388;DHT22;5240;51.128;4.566;2023-05-02T07:53:33;13.20;99.90
10388;DHT22;5240;51.128;4.566;2023-05-02T07:56:02;13.40;99.90
10388;DHT22;5240;51.128;4.566;2023-05-02T07:58:29;13.40;99.90
10388;DHT22;5240;51.128;4.566;2023-05-02T08:00:56;13.30;99.90
10388;DHT22;5240;51.128;4.566;2023-05-02T08:03:25;13.30;99.90
10388;DHT22;5240;51.128;4.566;2023-05-02T08:05:52;13.20;99.90
10388;DHT22;5240;51.128;4.566;2023-05-02T08:08:19;13.30;99.90
10388;DHT22;5240;51.128;4.566;2023-05-02T08:10:47;13.50;99.90
10388;DHT22;5240;51.128;4.566;2023-05-02T08:13:16;13.90;99.90
10388;DHT22;5240;51.128;4.566;2023-05-02T08:15:43;14.10;99.90
10388;DHT22;5240;51.128;4.566;2023-05-02T08:18:11;14.00;99.90
10388;DHT22;5240;51.128;4.566;2023-05-02T08:20:40;13.80;99.90
10388;DHT22;5240;51.128;4.566;2023-05-02T08:23:07;13.90;99.90
10388;DHT22;5240;51.128;4.566;2023-05-02T08:25:34;13.80;99.90
10388;DHT22;5240;51.128;4.566;2023-05-02T08:28:01;13.80;99.90
10388;DHT22;5240;51.128;4.566;2023-05-02T08:30:31;13.80;99.90
10388;DHT22;5240;51.128;4.566;2023-05-02T08:32:58;13.80;99.90
10388;DHT22;5240;51.128;4.566;2023-05-02T08:35:27;14.00;99.90
10388;DHT22;5240;51.128;4.566;2023-05-02T08:37:56;14.10;99.90
10388;DHT22;5240;51.128;4.566;2023-05-02T08:40:24;14.20;99.90
10388;DHT22;5240;51.128;4.566;2023-05-02T08:42:52;14.40;99.90
10388;DHT22;5240;51.128;4.566;2023-05-02T08:45:21;14.40;99.90
10388;DHT22;5240;51.128;4.566;2023-05-02T08:47:49;14.40;99.90
10388;DHT22;5240;51.128;4.566;2023-05-02T08:50:18;14.30;99.90
10388;DHT22;5240;51.128;4.566;2023-05-02T08:52:46;14.80;99.90
10388;DHT22;5240;51.128;4.566;2023-05-02T08:55:16;15.30;99.90
10388;DHT22;5240;51.128;4.566;2023-05-02T08:57:43;15.50;99.90
10388;DHT22;5240;51.128;4.566;2023-05-02T09:00:12;15.70;99.90
10388;DHT22;5240;51.128;4.566;2023-05-02T09:02:52;15.40;99.90
10388;DHT22;5240;51.128;4.566;2023-05-02T09:05:23;15.30;99.90
10388;DHT22;5240;51.128;4.566;2023-05-02T09:07:51;15.10;99.90
10388;DHT22;5240;51.128;4.566;2023-05-02T09:10:21;15.30;99.90
10388;DHT22;5240;51.128;4.566;2023-05-02T09:12:49;15.90;99.90
10388;DHT22;5240;51.128;4.566;2023-05-02T09:15:16;16.40;99.90
10388;DHT22;5240;51.128;4.566;2023-05-02T09:17:46;17.40;99.90
10388;DHT22;5240;51.128;4.566;2023-05-02T09:20:18;17.00;99.90
10388;DHT22;5240;51.128;4.566;2023-05-02T09:22:49;16.40;99.90
10388;DHT22;5240;51.128;4.566;2023-05-02T09:25:16;16.20;99.90
10388;DHT22;5240;51.128;4.566;2023-05-02T09:30:28;15.40;99.90
10388;DHT22;5240;51.128;4.566;2023-05-02T09:32:58;15.50;99.90
10388;DHT22;5240;51.128;4.566;2023-05-02T09:35:52;15.90;99.90
10388;DHT22;5240;51.128;4.566;2023-05-02T09:38:20;16.10;99.90
10388;DHT22;5240;51.128;4.566;2023-05-02T09:40:52;15.90;99.90
10388;DHT22;5240;51.128;4.566;2023-05-02T09:43:21;16.40;99.90
10388;DHT22;5240;51.128;4.566;2023-05-02T09:45:58;16.10;99.90
10388;DHT22;5240;51.128;4.566;2023-05-02T09:48:27;16.40;99.90
10388;DHT22;5240;51.128;4.566;2023-05-02T09:50:55;17.40;99.90
10388;DHT22;5240;51.128;4.566;2023-05-02T09:53:25;17.80;99.90
10388;DHT22;5240;51.128;4.566;2023-05-02T09:55:59;17.00;99.90
10388;DHT22;5240;51.128;4.566;2023-05-02T09:58:27;16.30;99.90
10388;DHT22;5240;51.128;4.566;2023-05-02T10:00:57;16.10;99.90
10388;DHT22;5240;51.128;4.566;2023-05-02T10:03:26;16.50;99.90
10388;DHT22;5240;51.128;4.566;2023-05-02T10:05:54;17.60;99.90
10388;DHT22;5240;51.128;4.566;2023-05-02T10:08:32;18.30;99.90
10388;DHT22;5240;51.128;4.566;2023-05-02T10:11:27;17.50;99.90
10388;DHT22;5240;51.128;4.566;2023-05-02T10:19:38;17.90;99.90
10388;DHT22;5240;51.128;4.566;2023-05-02T10:22:09;17.90;99.90
10388;DHT22;5240;51.128;4.566;2023-05-02T10:24:39;17.40;99.90
10388;DHT22;5240;51.128;4.566;2023-05-02T10:27:07;17.30;99.90
10388;DHT22;5240;51.128;4.566;2023-05-02T10:29:35;17.70;99.90
10388;DHT22;5240;51.128;4.566;2023-05-02T10:32:04;17.90;99.90
10388;DHT22;5240;51.128;4.566;2023-05-02T10:34:35;17.70;99.90
10388;DHT22;5240;51.128;4.566;2023-05-02T10:37:02;17.50;99.90
10388;DHT22;5240;51.128;4.566;2023-05-02T10:39:31;17.80;99.90
10388;DHT22;5240;51.128;4.566;2023-05-02T10:42:01;17.60;99.90
10388;DHT22;5240;51.128;4.566;2023-05-02T10:44:32;18.40;99.90
10388;DHT22;5240;51.128;4.566;2023-05-02T10:47:08;19.50;99.90
10388;DHT22;5240;51.128;4.566;2023-05-02T10:49:53;18.90;99.90
10388;DHT22;5240;51.128;4.566;2023-05-02T10:52:31;19.30;99.90
10388;DHT22;5240;51.128;4.566;2023-05-02T10:55:16;19.90;99.90
10388;DHT22;5240;51.128;4.566;2023-05-02T10:58:21;19.10;99.90
10388;DHT22;5240;51.128;4.566;2023-05-02T11:17:05;18.90;99.90
10388;DHT22;5240;51.128;4.566;2023-05-02T11:22:37;18.50;99.90
10388;DHT22;5240;51.128;4.566;2023-05-02T11:25:28;18.50;99.90
10388;DHT22;5240;51.128;4.566;2023-05-02T11:27:55;18.40;99.90
10388;DHT22;5240;51.128;4.566;2023-05-02T11:30:40;19.20;99.90
10388;DHT22;5240;51.128;4.566;2023-05-02T11:33:16;20.20;99.90
10388;DHT22;5240;51.128;4.566;2023-05-02T11:38:17;21.70;99.90
10388;DHT22;5240;51.128;4.566;2023-05-02T11:41:03;21.00;99.90
10388;DHT22;5240;51.128;4.566;2023-05-02T11:43:34;20.00;99.90
10388;DHT22;5240;51.128;4.566;2023-05-02T11:46:02;20.60;99.90
10388;DHT22;5240;51.128;4.566;2023-05-02T11:59:01;22.00;99.90
10388;DHT22;5240;51.128;4.566;2023-05-02T12:01:28;21.50;99.90
10388;DHT22;5240;51.128;4.566;2023-05-02T12:04:03;20.40;99.90
10388;DHT22;5240;51.128;4.566;2023-05-02T12:09:27;18.50;99.90
10388;DHT22;5240;51.128;4.566;2023-05-02T12:11:55;20.10;99.90
10388;DHT22;5240;51.128;4.566;2023-05-02T12:14:29;21.20;99.90
10388;DHT22;5240;51.128;4.566;2023-05-02T12:16:58;22.30;99.90
10388;DHT22;5240;51.128;4.566;2023-05-02T12:19:26;23.00;99.90
10388;DHT22;5240;51.128;4.566;2023-05-02T12:21:54;22.60;99.90
10388;DHT22;5240;51.128;4.566;2023-05-02T12:24:22;22.00;99.90
10388;DHT22;5240;51.128;4.566;2023-05-02T12:26:49;22.60;99.90
10388;DHT22;5240;51.128;4.566;2023-05-02T12:29:17;23.70;99.90
10388;DHT22;5240;51.128;4.566;2023-05-02T12:31:51;23.60;99.90
10388;DHT22;5240;51.128;4.566;2023-05-02T12:34:31;22.50;99.90
10388;DHT22;5240;51.128;4.566;2023-05-02T13:02:57;25.00;97.90
10388;DHT22;5240;51.128;4.566;2023-05-02T13:05:25;24.70;98.40
10388;DHT22;5240;51.128;4.566;2023-05-02T13:07:52;24.60;98.20
10388;DHT22;5240;51.128;4.566;2023-05-02T13:10:21;23.60;98.60
10388;DHT22;5240;51.128;4.566;2023-05-02T13:12:49;23.80;98.00
10388;DHT22;5240;51.128;4.566;2023-05-02T13:15:17;23.30;98.50
10388;DHT22;5240;51.128;4.566;2023-05-02T13:17:45;23.50;97.80
10388;DHT22;5240;51.128;4.566;2023-05-02T13:20:13;23.60;98.20
10388;DHT22;5240;51.128;4.566;2023-05-02T13:22:40;24.30;97.80
10388;DHT22;5240;51.128;4.566;2023-05-02T13:25:08;23.70;97.80
10388;DHT22;5240;51.128;4.566;2023-05-02T13:27:35;23.30;97.80
10388;DHT22;5240;51.128;4.566;2023-05-02T13:30:03;23.10;97.70
10388;DHT22;5240;51.128;4.566;2023-05-02T13:32:30;23.50;98.10
10388;DHT22;5240;51.128;4.566;2023-05-02T13:34:58;23.90;97.10
10388;DHT22;5240;51.128;4.566;2023-05-02T13:37:26;24.20;96.70
10388;DHT22;5240;51.128;4.566;2023-05-02T14:00:36;22.70;96.40
10388;DHT22;5240;51.128;4.566;2023-05-02T14:03:03;23.50;95.80
10388;DHT22;5240;51.128;4.566;2023-05-02T14:05:31;23.60;95.60
10388;DHT22;5240;51.128;4.566;2023-05-02T14:07:58;24.00;95.60
10388;DHT22;5240;51.128;4.566;2023-05-02T14:10:25;24.70;95.80
10388;DHT22;5240;51.128;4.566;2023-05-02T14:12:52;24.70;95.00
10388;DHT22;5240;51.128;4.566;2023-05-02T14:15:20;23.80;95.90
10388;DHT22;5240;51.128;4.566;2023-05-02T14:17:50;24.40;95.40
10388;DHT22;5240;51.128;4.566;2023-05-02T14:20:18;24.50;94.70
10388;DHT22;5240;51.128;4.566;2023-05-02T14:22:45;24.70;95.00
10388;DHT22;5240;51.128;4.566;2023-05-02T14:25:13;24.40;94.40
10388;DHT22;5240;51.128;4.566;2023-05-02T14:27:44;23.80;94.90
10388;DHT22;5240;51.128;4.566;2023-05-02T14:30:11;23.90;94.90
10388;DHT22;5240;51.128;4.566;2023-05-02T14:32:38;24.10;94.90
10388;DHT22;5240;51.128;4.566;2023-05-02T14:35:08;22.90;95.50
10388;DHT22;5240;51.128;4.566;2023-05-02T14:37:36;22.90;95.50
10388;DHT22;5240;51.128;4.566;2023-05-02T14:40:05;23.00;95.10
10388;DHT22;5240;51.128;4.566;2023-05-02T14:42:32;22.60;95.50
10388;DHT22;5240;51.128;4.566;2023-05-02T14:44:59;23.70;95.20
10388;DHT22;5240;51.128;4.566;2023-05-02T14:47:27;24.00;94.70
10388;DHT22;5240;51.128;4.566;2023-05-02T14:49:54;24.50;94.80
10388;DHT22;5240;51.128;4.566;2023-05-02T14:52:23;24.40;94.00
10388;DHT22;5240;51.128;4.566;2023-05-02T14:54:50;24.50;94.10
10388;DHT22;5240;51.128;4.566;2023-05-02T14:57:17;23.80;94.10
10388;DHT22;5240;51.128;4.566;2023-05-02T14:59:44;23.60;94.00
10388;DHT22;5240;51.128;4.566;2023-05-02T15:02:11;23.30;94.40
10388;DHT22;5240;51.128;4.566;2023-05-02T15:04:38;22.80;94.50
10388;DHT22;5240;51.128;4.566;2023-05-02T15:07:06;22.40;94.60
10388;DHT22;5240;51.128;4.566;2023-05-02T15:09:34;22.40;95.00
10388;DHT22;5240;51.128;4.566;2023-05-02T15:12:01;23.30;94.60
10388;DHT22;5240;51.128;4.566;2023-05-02T15:14:28;23.20;94.30
10388;DHT22;5240;51.128;4.566;2023-05-02T15:16:55;22.50;94.60
10388;DHT22;5240;51.128;4.566;2023-05-02T15:19:22;22.80;94.70
10388;DHT22;5240;51.128;4.566;2023-05-02T15:21:49;22.20;95.00
10388;DHT22;5240;51.128;4.566;2023-05-02T15:24:17;22.30;95.40
10388;DHT22;5240;51.128;4.566;2023-05-02T15:26:46;23.20;95.10
10388;DHT22;5240;51.128;4.566;2023-05-02T15:29:13;23.60;94.10
10388;DHT22;5240;51.128;4.566;2023-05-02T15:31:41;23.40;94.40
10388;DHT22;5240;51.128;4.566;2023-05-02T15:34:08;23.50;93.90
10388;DHT22;5240;51.128;4.566;2023-05-02T15:36:35;22.70;94.30
10388;DHT22;5240;51.128;4.566;2023-05-02T15:39:02;23.40;94.40
10388;DHT22;5240;51.128;4.566;2023-05-02T15:41:29;22.80;94.10
10388;DHT22;5240;51.128;4.566;2023-05-02T15:44:00;22.30;94.30
10388;DHT22;5240;51.128;4.566;2023-05-02T15:46:27;22.60;94.70
10388;DHT22;5240;51.128;4.566;2023-05-02T15:48:57;22.50;94.80
10388;DHT22;5240;51.128;4.566;2023-05-02T15:51:24;23.30;94.60
10388;DHT22;5240;51.128;4.566;2023-05-02T15:53:51;22.00;94.70
10388;DHT22;5240;51.128;4.566;2023-05-02T15:56:18;21.80;95.30
10388;DHT22;5240;51.128;4.566;2023-05-02T15:58:46;22.60;94.50
10388;DHT22;5240;51.128;4.566;2023-05-02T16:01:15;22.60;95.20
10388;DHT22;5240;51.128;4.566;2023-05-02T16:03:42;23.20;94.10
10388;DHT22;5240;51.128;4.566;2023-05-02T16:06:09;22.50;95.10
10388;DHT22;5240;51.128;4.566;2023-05-02T16:08:36;22.50;94.10
10388;DHT22;5240;51.128;4.566;2023-05-02T16:11:03;21.40;95.30
10388;DHT22;5240;51.128;4.566;2023-05-02T16:13:30;22.40;95.00
10388;DHT22;5240;51.128;4.566;2023-05-02T16:15:58;22.50;94.50
10388;DHT22;5240;51.128;4.566;2023-05-02T16:18:26;21.70;95.20
10388;DHT22;5240;51.128;4.566;2023-05-02T16:20:54;20.80;95.60
10388;DHT22;5240;51.128;4.566;2023-05-02T16:23:21;20.40;95.70
10388;DHT22;5240;51.128;4.566;2023-05-02T16:25:49;20.70;96.10
10388;DHT22;5240;51.128;4.566;2023-05-02T16:28:16;21.00;95.90
10388;DHT22;5240;51.128;4.566;2023-05-02T16:30:43;21.20;95.90
10388;DHT22;5240;51.128;4.566;2023-05-02T16:33:09;21.20;96.00
10388;DHT22;5240;51.128;4.566;2023-05-02T16:35:38;20.80;95.50
10388;DHT22;5240;51.128;4.566;2023-05-02T16:38:05;20.90;96.00
10388;DHT22;5240;51.128;4.566;2023-05-02T16:40:32;21.60;95.50
10388;DHT22;5240;51.128;4.566;2023-05-02T16:42:59;21.40;95.30
10388;DHT22;5240;51.128;4.566;2023-05-02T16:45:26;20.90;95.50
10388;DHT22;5240;51.128;4.566;2023-05-02T16:47:53;20.50;96.10
10388;DHT22;5240;51.128;4.566;2023-05-02T16:50:21;20.90;95.80
10388;DHT22;5240;51.128;4.566;2023-05-02T16:52:50;20.80;95.60
10388;DHT22;5240;51.128;4.566;2023-05-02T16:55:17;20.00;95.50
10388;DHT22;5240;51.128;4.566;2023-05-02T16:57:44;19.60;96.00
10388;DHT22;5240;51.128;4.566;2023-05-02T17:00:12;20.20;96.30
10388;DHT22;5240;51.128;4.566;2023-05-02T17:02:39;20.50;95.40
10388;DHT22;5240;51.128;4.566;2023-05-02T17:05:07;20.70;95.40
10388;DHT22;5240;51.128;4.566;2023-05-02T17:07:35;21.00;95.40
10388;DHT22;5240;51.128;4.566;2023-05-02T17:10:04;21.20;94.70
10388;DHT22;5240;51.128;4.566;2023-05-02T17:12:32;20.90;95.30
10388;DHT22;5240;51.128;4.566;2023-05-02T17:14:59;20.30;95.40
10388;DHT22;5240;51.128;4.566;2023-05-02T17:17:26;19.10;96.20
10388;DHT22;5240;51.128;4.566;2023-05-02T17:19:53;18.50;96.20
10388;DHT22;5240;51.128;4.566;2023-05-02T17:22:20;18.00;97.30
10388;DHT22;5240;51.128;4.566;2023-05-02T17:24:47;17.80;97.00
10388;DHT22;5240;51.128;4.566;2023-05-02T17:27:18;17.60;97.30
10388;DHT22;5240;51.128;4.566;2023-05-02T17:29:46;17.30;97.80
10388;DHT22;5240;51.128;4.566;2023-05-02T17:32:13;16.60;97.90